FNLU/LAD METAR and TAF weather

Enter ICAO airport designator
Station Type Date Time Source
FNLU METAR 2020/04/04 22:00 UTC NOAA

FNLU 042200Z 22004KT 9999 BKN020 28/25 Q1012 NOSIG


Station Type Date Time Source
FNLU Decoded METAR 2020/04/04 22:00 UTC NOAA

Luanda, Angola (FNLU) 08-51S 013-14E 70M
Apr 04, 2020 - 06:00 PM EDT / 2020.04.04 2200 UTC
Wind: from the SW (220 degrees) at 5 MPH (4 KT):0
Visibility: greater than 7 mile(s):0
Sky conditions: mostly cloudy
Temperature: 82 F (28 C)
Dew Point: 77 F (25 C)
Relative Humidity: 83%
Pressure (altimeter): 29.88 in. Hg (1012 hPa)
ob: FNLU 042200Z 22004KT 9999 BKN020 28/25 Q1012 NOSIG
cycle: 22

Station Type Date Time Source
FNLU TAF 2020/04/04 18:15 UTC NOAA

TAF TAF FNLU 041700Z 0418/0524 27009KT 9000 SCT020 FEW025CB
TEMPO 0424/0504 12007KT 6000 DZRA SCT018 BKN020
BECMG 0509/0511 VRB02KT 9999 SCT020
TEMPO 0513/0517 24011KT TS

Example: see airport list